sensor_id;sensor_type;location;lat;lon;timestamp;P1;durP1;ratioP1;P2;durP2;ratioP2
16906;SDS011;8570;52.380;4.654;2023-06-24T00:01:21;8.07;;;5.05;;
16906;SDS011;8570;52.380;4.654;2023-06-24T00:06:23;7.05;;;5.00;;
16906;SDS011;8570;52.380;4.654;2023-06-24T00:11:28;7.53;;;4.53;;
16906;SDS011;8570;52.380;4.654;2023-06-24T00:16:30;7.22;;;4.40;;
16906;SDS011;8570;52.380;4.654;2023-06-24T00:21:32;8.70;;;5.00;;
16906;SDS011;8570;52.380;4.654;2023-06-24T00:26:39;6.57;;;4.47;;
16906;SDS011;8570;52.380;4.654;2023-06-24T00:31:40;5.90;;;4.10;;
16906;SDS011;8570;52.380;4.654;2023-06-24T00:36:42;5.90;;;4.10;;
16906;SDS011;8570;52.380;4.654;2023-06-24T00:41:48;7.57;;;3.83;;
16906;SDS011;8570;52.380;4.654;2023-06-24T00:46:50;4.13;;;3.50;;
16906;SDS011;8570;52.380;4.654;2023-06-24T00:51:52;4.40;;;3.58;;
16906;SDS011;8570;52.380;4.654;2023-06-24T00:56:57;7.07;;;4.13;;
16906;SDS011;8570;52.380;4.654;2023-06-24T01:02:00;4.63;;;4.07;;
16906;SDS011;8570;52.380;4.654;2023-06-24T01:07:04;5.70;;;3.72;;
16906;SDS011;8570;52.380;4.654;2023-06-24T01:12:08;4.15;;;3.75;;
16906;SDS011;8570;52.380;4.654;2023-06-24T01:17:11;4.82;;;3.92;;
16906;SDS011;8570;52.380;4.654;2023-06-24T01:22:21;5.78;;;4.30;;
16906;SDS011;8570;52.380;4.654;2023-06-24T01:27:45;7.05;;;4.95;;
16906;SDS011;8570;52.380;4.654;2023-06-24T01:32:57;9.30;;;5.40;;
16906;SDS011;8570;52.380;4.654;2023-06-24T01:38:06;5.28;;;4.53;;
16906;SDS011;8570;52.380;4.654;2023-06-24T01:43:11;6.30;;;5.03;;
16906;SDS011;8570;52.380;4.654;2023-06-24T01:48:18;8.75;;;6.68;;
16906;SDS011;8570;52.380;4.654;2023-06-24T01:53:24;7.50;;;5.72;;
16906;SDS011;8570;52.380;4.654;2023-06-24T01:58:27;8.57;;;5.30;;
16906;SDS011;8570;52.380;4.654;2023-06-24T02:03:32;8.27;;;5.78;;
16906;SDS011;8570;52.380;4.654;2023-06-24T02:08:36;6.57;;;5.78;;
16906;SDS011;8570;52.380;4.654;2023-06-24T02:13:41;7.35;;;5.97;;
16906;SDS011;8570;52.380;4.654;2023-06-24T02:18:46;9.27;;;6.13;;
16906;SDS011;8570;52.380;4.654;2023-06-24T02:23:49;8.30;;;6.03;;
16906;SDS011;8570;52.380;4.654;2023-06-24T02:28:52;11.77;;;6.18;;
16906;SDS011;8570;52.380;4.654;2023-06-24T02:33:57;7.22;;;5.70;;
16906;SDS011;8570;52.380;4.654;2023-06-24T02:38:59;8.32;;;6.28;;
16906;SDS011;8570;52.380;4.654;2023-06-24T02:44:01;7.55;;;5.60;;
16906;SDS011;8570;52.380;4.654;2023-06-24T02:49:04;7.13;;;5.43;;
16906;SDS011;8570;52.380;4.654;2023-06-24T02:54:06;7.32;;;5.85;;
16906;SDS011;8570;52.380;4.654;2023-06-24T02:59:11;7.10;;;5.82;;
16906;SDS011;8570;52.380;4.654;2023-06-24T03:04:15;5.95;;;5.10;;
16906;SDS011;8570;52.380;4.654;2023-06-24T03:09:16;6.70;;;5.30;;
16906;SDS011;8570;52.380;4.654;2023-06-24T03:14:19;6.78;;;5.18;;
16906;SDS011;8570;52.380;4.654;2023-06-24T03:19:22;8.63;;;5.57;;
16906;SDS011;8570;52.380;4.654;2023-06-24T03:24:24;6.93;;;5.18;;
16906;SDS011;8570;52.380;4.654;2023-06-24T03:29:26;6.38;;;4.65;;
16906;SDS011;8570;52.380;4.654;2023-06-24T03:34:29;7.70;;;5.40;;
16906;SDS011;8570;52.380;4.654;2023-06-24T03:39:31;9.50;;;5.38;;
16906;SDS011;8570;52.380;4.654;2023-06-24T03:44:36;6.22;;;4.72;;
16906;SDS011;8570;52.380;4.654;2023-06-24T03:49:39;5.93;;;4.57;;
16906;SDS011;8570;52.380;4.654;2023-06-24T03:54:41;6.47;;;4.70;;
16906;SDS011;8570;52.380;4.654;2023-06-24T03:59:43;6.88;;;4.43;;
16906;SDS011;8570;52.380;4.654;2023-06-24T04:04:47;7.38;;;4.90;;
16906;SDS011;8570;52.380;4.654;2023-06-24T04:09:51;6.90;;;4.18;;
16906;SDS011;8570;52.380;4.654;2023-06-24T04:14:53;7.00;;;4.90;;
16906;SDS011;8570;52.380;4.654;2023-06-24T04:19:56;7.13;;;4.30;;
16906;SDS011;8570;52.380;4.654;2023-06-24T04:25:00;6.07;;;4.50;;
16906;SDS011;8570;52.380;4.654;2023-06-24T04:30:02;7.07;;;4.20;;
16906;SDS011;8570;52.380;4.654;2023-06-24T04:35:07;4.97;;;4.35;;
16906;SDS011;8570;52.380;4.654;2023-06-24T04:40:09;7.68;;;4.78;;
16906;SDS011;8570;52.380;4.654;2023-06-24T04:45:12;6.70;;;4.63;;
16906;SDS011;8570;52.380;4.654;2023-06-24T04:50:16;8.60;;;4.50;;
16906;SDS011;8570;52.380;4.654;2023-06-24T04:55:18;8.73;;;4.97;;
16906;SDS011;8570;52.380;4.654;2023-06-24T05:00:20;8.55;;;4.72;;
16906;SDS011;8570;52.380;4.654;2023-06-24T05:05:26;9.10;;;4.68;;
16906;SDS011;8570;52.380;4.654;2023-06-24T05:10:28;9.43;;;4.45;;
16906;SDS011;8570;52.380;4.654;2023-06-24T05:15:33;12.15;;;4.82;;
16906;SDS011;8570;52.380;4.654;2023-06-24T05:20:36;8.43;;;4.95;;
16906;SDS011;8570;52.380;4.654;2023-06-24T05:25:38;9.27;;;5.18;;
16906;SDS011;8570;52.380;4.654;2023-06-24T05:30:40;7.97;;;5.22;;
16906;SDS011;8570;52.380;4.654;2023-06-24T05:35:44;6.28;;;4.50;;
16906;SDS011;8570;52.380;4.654;2023-06-24T05:40:46;9.70;;;4.95;;
16906;SDS011;8570;52.380;4.654;2023-06-24T05:45:50;11.55;;;5.07;;
16906;SDS011;8570;52.380;4.654;2023-06-24T05:50:54;7.40;;;4.95;;
16906;SDS011;8570;52.380;4.654;2023-06-24T05:55:55;12.15;;;5.15;;
16906;SDS011;8570;52.380;4.654;2023-06-24T06:00:57;8.10;;;5.07;;
16906;SDS011;8570;52.380;4.654;2023-06-24T06:06:05;7.68;;;4.75;;
16906;SDS011;8570;52.380;4.654;2023-06-24T06:11:07;11.43;;;6.00;;
16906;SDS011;8570;52.380;4.654;2023-06-24T06:16:13;9.25;;;5.55;;
16906;SDS011;8570;52.380;4.654;2023-06-24T06:21:17;7.82;;;5.30;;
16906;SDS011;8570;52.380;4.654;2023-06-24T06:26:19;8.80;;;4.95;;
16906;SDS011;8570;52.380;4.654;2023-06-24T06:31:21;10.85;;;5.57;;
16906;SDS011;8570;52.380;4.654;2023-06-24T06:36:27;6.85;;;4.50;;
16906;SDS011;8570;52.380;4.654;2023-06-24T06:41:37;7.25;;;4.70;;
16906;SDS011;8570;52.380;4.654;2023-06-24T06:46:51;13.50;;;5.15;;
16906;SDS011;8570;52.380;4.654;2023-06-24T06:51:56;6.50;;;4.53;;
16906;SDS011;8570;52.380;4.654;2023-06-24T06:57:08;11.00;;;4.90;;
16906;SDS011;8570;52.380;4.654;2023-06-24T07:02:37;10.88;;;4.65;;
16906;SDS011;8570;52.380;4.654;2023-06-24T07:07:42;9.18;;;5.60;;
16906;SDS011;8570;52.380;4.654;2023-06-24T07:12:50;8.07;;;5.22;;
16906;SDS011;8570;52.380;4.654;2023-06-24T07:17:58;7.90;;;4.75;;
16906;SDS011;8570;52.380;4.654;2023-06-24T07:23:04;10.95;;;5.20;;
16906;SDS011;8570;52.380;4.654;2023-06-24T07:28:15;9.48;;;4.70;;
16906;SDS011;8570;52.380;4.654;2023-06-24T07:33:20;9.70;;;4.78;;
16906;SDS011;8570;52.380;4.654;2023-06-24T07:38:32;9.95;;;4.68;;
16906;SDS011;8570;52.380;4.654;2023-06-24T07:43:35;7.07;;;4.60;;
16906;SDS011;8570;52.380;4.654;2023-06-24T07:48:40;7.20;;;4.95;;
16906;SDS011;8570;52.380;4.654;2023-06-24T07:54:02;12.00;;;4.40;;
16906;SDS011;8570;52.380;4.654;2023-06-24T07:59:07;8.65;;;5.03;;
16906;SDS011;8570;52.380;4.654;2023-06-24T08:04:14;9.07;;;5.15;;
16906;SDS011;8570;52.380;4.654;2023-06-24T08:09:19;7.82;;;4.97;;
16906;SDS011;8570;52.380;4.654;2023-06-24T08:14:32;9.43;;;4.82;;
16906;SDS011;8570;52.380;4.654;2023-06-24T08:19:56;10.80;;;4.47;;
16906;SDS011;8570;52.380;4.654;2023-06-24T08:25:09;8.73;;;5.25;;
16906;SDS011;8570;52.380;4.654;2023-06-24T08:30:16;8.95;;;4.40;;
16906;SDS011;8570;52.380;4.654;2023-06-24T08:35:18;9.00;;;4.70;;
16906;SDS011;8570;52.380;4.654;2023-06-24T08:40:27;10.35;;;4.43;;
16906;SDS011;8570;52.380;4.654;2023-06-24T08:45:36;8.45;;;4.95;;
16906;SDS011;8570;52.380;4.654;2023-06-24T08:50:43;12.05;;;5.60;;
16906;SDS011;8570;52.380;4.654;2023-06-24T08:55:56;7.18;;;5.10;;
16906;SDS011;8570;52.380;4.654;2023-06-24T09:01:29;7.15;;;4.85;;
16906;SDS011;8570;52.380;4.654;2023-06-24T09:06:36;9.80;;;4.50;;
16906;SDS011;8570;52.380;4.654;2023-06-24T09:11:52;7.93;;;4.40;;
16906;SDS011;8570;52.380;4.654;2023-06-24T09:17:18;8.98;;;5.40;;
16906;SDS011;8570;52.380;4.654;2023-06-24T09:27:53;9.02;;;4.45;;
16906;SDS011;8570;52.380;4.654;2023-06-24T09:33:23;7.40;;;4.65;;
16906;SDS011;8570;52.380;4.654;2023-06-24T09:38:51;9.05;;;4.28;;
16906;SDS011;8570;52.380;4.654;2023-06-24T09:44:01;6.50;;;4.43;;
16906;SDS011;8570;52.380;4.654;2023-06-24T09:49:11;9.88;;;5.45;;
16906;SDS011;8570;52.380;4.654;2023-06-24T09:54:32;5.10;;;4.18;;
16906;SDS011;8570;52.380;4.654;2023-06-24T09:59:37;6.45;;;4.18;;
16906;SDS011;8570;52.380;4.654;2023-06-24T10:04:41;8.45;;;3.80;;
16906;SDS011;8570;52.380;4.654;2023-06-24T10:09:54;9.50;;;4.38;;
16906;SDS011;8570;52.380;4.654;2023-06-24T10:15:02;6.50;;;4.15;;
16906;SDS011;8570;52.380;4.654;2023-06-24T10:20:16;9.98;;;4.28;;
16906;SDS011;8570;52.380;4.654;2023-06-24T10:25:37;7.35;;;4.15;;
16906;SDS011;8570;52.380;4.654;2023-06-24T10:31:12;7.60;;;4.25;;
16906;SDS011;8570;52.380;4.654;2023-06-24T10:36:31;8.43;;;5.55;;
16906;SDS011;8570;52.380;4.654;2023-06-24T10:41:38;11.27;;;4.25;;
16906;SDS011;8570;52.380;4.654;2023-06-24T10:46:55;10.18;;;4.65;;
16906;SDS011;8570;52.380;4.654;2023-06-24T10:52:10;7.18;;;4.22;;
16906;SDS011;8570;52.380;4.654;2023-06-24T10:57:20;6.70;;;4.30;;
16906;SDS011;8570;52.380;4.654;2023-06-24T11:02:30;8.15;;;4.13;;
16906;SDS011;8570;52.380;4.654;2023-06-24T11:07:32;6.35;;;4.38;;
16906;SDS011;8570;52.380;4.654;2023-06-24T11:12:37;6.18;;;4.45;;
16906;SDS011;8570;52.380;4.654;2023-06-24T11:17:50;7.60;;;4.18;;
16906;SDS011;8570;52.380;4.654;2023-06-24T11:22:53;7.68;;;4.35;;
16906;SDS011;8570;52.380;4.654;2023-06-24T11:27:55;9.73;;;4.38;;
16906;SDS011;8570;52.380;4.654;2023-06-24T11:33:00;7.22;;;4.43;;
16906;SDS011;8570;52.380;4.654;2023-06-24T11:38:06;7.60;;;4.97;;
16906;SDS011;8570;52.380;4.654;2023-06-24T11:43:15;7.22;;;4.72;;
16906;SDS011;8570;52.380;4.654;2023-06-24T11:48:23;7.72;;;4.88;;
16906;SDS011;8570;52.380;4.654;2023-06-24T11:53:30;10.30;;;5.22;;
16906;SDS011;8570;52.380;4.654;2023-06-24T11:58:36;7.18;;;4.80;;
16906;SDS011;8570;52.380;4.654;2023-06-24T12:03:42;8.68;;;5.03;;
16906;SDS011;8570;52.380;4.654;2023-06-24T12:08:45;8.55;;;4.38;;
16906;SDS011;8570;52.380;4.654;2023-06-24T12:13:50;10.27;;;5.07;;
16906;SDS011;8570;52.380;4.654;2023-06-24T12:18:54;7.70;;;4.40;;
16906;SDS011;8570;52.380;4.654;2023-06-24T12:23:56;7.38;;;4.50;;
16906;SDS011;8570;52.380;4.654;2023-06-24T12:28:59;10.10;;;4.55;;
16906;SDS011;8570;52.380;4.654;2023-06-24T12:34:09;7.32;;;4.50;;
16906;SDS011;8570;52.380;4.654;2023-06-24T12:39:29;9.55;;;4.45;;
16906;SDS011;8570;52.380;4.654;2023-06-24T12:44:53;7.47;;;4.70;;
16906;SDS011;8570;52.380;4.654;2023-06-24T12:50:00;5.03;;;4.05;;
16906;SDS011;8570;52.380;4.654;2023-06-24T12:55:06;6.25;;;4.68;;
16906;SDS011;8570;52.380;4.654;2023-06-24T13:00:14;5.88;;;4.20;;
16906;SDS011;8570;52.380;4.654;2023-06-24T13:05:24;9.98;;;4.53;;
16906;SDS011;8570;52.380;4.654;2023-06-24T13:10:32;12.45;;;4.70;;
16906;SDS011;8570;52.380;4.654;2023-06-24T13:15:34;8.80;;;4.60;;
16906;SDS011;8570;52.380;4.654;2023-06-24T13:20:38;8.68;;;4.63;;
16906;SDS011;8570;52.380;4.654;2023-06-24T13:25:40;7.75;;;4.28;;
16906;SDS011;8570;52.380;4.654;2023-06-24T13:30:42;7.13;;;4.80;;
16906;SDS011;8570;52.380;4.654;2023-06-24T13:35:45;9.43;;;6.30;;
16906;SDS011;8570;52.380;4.654;2023-06-24T13:41:01;8.18;;;4.78;;
16906;SDS011;8570;52.380;4.654;2023-06-24T13:46:22;5.43;;;4.80;;
16906;SDS011;8570;52.380;4.654;2023-06-24T13:51:25;7.90;;;5.38;;
16906;SDS011;8570;52.380;4.654;2023-06-24T13:56:27;8.52;;;5.20;;
16906;SDS011;8570;52.380;4.654;2023-06-24T14:01:37;7.07;;;4.97;;
16906;SDS011;8570;52.380;4.654;2023-06-24T14:06:42;11.40;;;5.43;;
16906;SDS011;8570;52.380;4.654;2023-06-24T14:11:45;7.50;;;4.90;;
16906;SDS011;8570;52.380;4.654;2023-06-24T14:16:47;7.30;;;5.40;;
16906;SDS011;8570;52.380;4.654;2023-06-24T14:21:51;7.82;;;5.47;;
16906;SDS011;8570;52.380;4.654;2023-06-24T14:26:53;7.47;;;5.90;;
16906;SDS011;8570;52.380;4.654;2023-06-24T14:31:55;8.77;;;5.93;;
16906;SDS011;8570;52.380;4.654;2023-06-24T14:36:59;8.05;;;5.50;;
16906;SDS011;8570;52.380;4.654;2023-06-24T14:42:01;8.73;;;5.72;;
16906;SDS011;8570;52.380;4.654;2023-06-24T14:47:03;6.63;;;5.47;;
16906;SDS011;8570;52.380;4.654;2023-06-24T14:52:10;6.50;;;5.45;;
16906;SDS011;8570;52.380;4.654;2023-06-24T14:57:12;6.22;;;5.22;;
16906;SDS011;8570;52.380;4.654;2023-06-24T15:02:25;9.07;;;5.40;;
16906;SDS011;8570;52.380;4.654;2023-06-24T15:07:31;6.15;;;5.10;;
16906;SDS011;8570;52.380;4.654;2023-06-24T15:12:33;6.65;;;5.22;;
16906;SDS011;8570;52.380;4.654;2023-06-24T15:17:40;7.10;;;5.60;;
16906;SDS011;8570;52.380;4.654;2023-06-24T15:22:59;12.50;;;5.20;;
16906;SDS011;8570;52.380;4.654;2023-06-24T15:28:03;7.57;;;5.15;;
16906;SDS011;8570;52.380;4.654;2023-06-24T15:33:05;5.05;;;4.53;;
16906;SDS011;8570;52.380;4.654;2023-06-24T15:38:12;6.35;;;4.65;;
16906;SDS011;8570;52.380;4.654;2023-06-24T15:43:14;7.50;;;4.38;;
16906;SDS011;8570;52.380;4.654;2023-06-24T15:48:23;5.32;;;4.65;;
16906;SDS011;8570;52.380;4.654;2023-06-24T15:53:27;5.88;;;4.45;;
16906;SDS011;8570;52.380;4.654;2023-06-24T15:58:29;6.45;;;3.97;;
16906;SDS011;8570;52.380;4.654;2023-06-24T16:03:31;9.02;;;4.68;;
16906;SDS011;8570;52.380;4.654;2023-06-24T16:08:34;6.60;;;4.72;;
16906;SDS011;8570;52.380;4.654;2023-06-24T16:13:36;6.63;;;4.40;;
16906;SDS011;8570;52.380;4.654;2023-06-24T16:18:41;5.95;;;4.30;;
16906;SDS011;8570;52.380;4.654;2023-06-24T16:23:44;5.03;;;4.25;;
16906;SDS011;8570;52.380;4.654;2023-06-24T16:28:47;5.30;;;3.85;;
16906;SDS011;8570;52.380;4.654;2023-06-24T16:33:50;6.57;;;4.18;;
16906;SDS011;8570;52.380;4.654;2023-06-24T16:38:54;4.40;;;3.85;;
16906;SDS011;8570;52.380;4.654;2023-06-24T16:43:56;7.55;;;5.00;;
16906;SDS011;8570;52.380;4.654;2023-06-24T16:48:58;11.55;;;9.00;;
16906;SDS011;8570;52.380;4.654;2023-06-24T16:54:05;6.78;;;4.15;;
16906;SDS011;8570;52.380;4.654;2023-06-24T16:59:06;5.75;;;4.72;;
16906;SDS011;8570;52.380;4.654;2023-06-24T17:04:08;6.25;;;4.10;;
16906;SDS011;8570;52.380;4.654;2023-06-24T17:09:12;6.43;;;4.00;;
16906;SDS011;8570;52.380;4.654;2023-06-24T17:14:17;7.60;;;4.50;;
16906;SDS011;8570;52.380;4.654;2023-06-24T17:19:19;4.75;;;4.32;;
16906;SDS011;8570;52.380;4.654;2023-06-24T17:24:22;6.35;;;5.05;;
16906;SDS011;8570;52.380;4.654;2023-06-24T17:29:33;31.42;;;28.15;;
16906;SDS011;8570;52.380;4.654;2023-06-24T17:34:39;7.10;;;6.05;;
16906;SDS011;8570;52.380;4.654;2023-06-24T17:39:42;6.70;;;5.57;;
16906;SDS011;8570;52.380;4.654;2023-06-24T17:44:48;8.35;;;5.60;;
16906;SDS011;8570;52.380;4.654;2023-06-24T17:49:50;9.27;;;6.05;;
16906;SDS011;8570;52.380;4.654;2023-06-24T17:54:53;9.43;;;6.30;;
16906;SDS011;8570;52.380;4.654;2023-06-24T17:59:55;8.55;;;6.65;;
16906;SDS011;8570;52.380;4.654;2023-06-24T18:04:57;9.60;;;6.47;;
16906;SDS011;8570;52.380;4.654;2023-06-24T18:10:00;10.80;;;6.38;;
16906;SDS011;8570;52.380;4.654;2023-06-24T18:15:02;8.80;;;6.15;;
16906;SDS011;8570;52.380;4.654;2023-06-24T18:20:05;9.43;;;5.80;;
16906;SDS011;8570;52.380;4.654;2023-06-24T18:25:10;9.23;;;6.07;;
16906;SDS011;8570;52.380;4.654;2023-06-24T18:30:18;7.07;;;5.53;;
16906;SDS011;8570;52.380;4.654;2023-06-24T18:35:42;6.40;;;4.90;;
16906;SDS011;8570;52.380;4.654;2023-06-24T18:40:47;10.02;;;4.70;;
16906;SDS011;8570;52.380;4.654;2023-06-24T18:45:52;7.50;;;5.00;;
16906;SDS011;8570;52.380;4.654;2023-06-24T18:50:56;5.68;;;4.82;;
16906;SDS011;8570;52.380;4.654;2023-06-24T18:56:02;7.45;;;4.72;;
16906;SDS011;8570;52.380;4.654;2023-06-24T19:01:06;5.50;;;4.22;;
16906;SDS011;8570;52.380;4.654;2023-06-24T19:06:08;7.60;;;5.00;;
16906;SDS011;8570;52.380;4.654;2023-06-24T19:11:14;7.50;;;4.18;;
16906;SDS011;8570;52.380;4.654;2023-06-24T19:16:19;8.63;;;4.85;;
16906;SDS011;8570;52.380;4.654;2023-06-24T19:21:21;9.38;;;5.13;;
16906;SDS011;8570;52.380;4.654;2023-06-24T19:26:24;9.80;;;4.70;;
16906;SDS011;8570;52.380;4.654;2023-06-24T19:31:27;11.10;;;5.35;;
16906;SDS011;8570;52.380;4.654;2023-06-24T19:36:29;10.13;;;5.35;;
16906;SDS011;8570;52.380;4.654;2023-06-24T19:41:32;7.20;;;5.30;;
16906;SDS011;8570;52.380;4.654;2023-06-24T19:46:34;11.63;;;5.47;;
16906;SDS011;8570;52.380;4.654;2023-06-24T19:51:39;9.35;;;5.70;;
16906;SDS011;8570;52.380;4.654;2023-06-24T19:56:42;12.90;;;6.75;;
16906;SDS011;8570;52.380;4.654;2023-06-24T20:01:45;10.80;;;6.97;;
16906;SDS011;8570;52.380;4.654;2023-06-24T20:06:54;9.35;;;7.65;;
16906;SDS011;8570;52.380;4.654;2023-06-24T20:11:57;9.00;;;7.10;;
16906;SDS011;8570;52.380;4.654;2023-06-24T20:16:59;9.93;;;7.60;;
16906;SDS011;8570;52.380;4.654;2023-06-24T20:22:02;11.73;;;9.57;;
16906;SDS011;8570;52.380;4.654;2023-06-24T20:27:06;11.45;;;9.93;;
16906;SDS011;8570;52.380;4.654;2023-06-24T20:32:08;16.73;;;11.65;;
16906;SDS011;8570;52.380;4.654;2023-06-24T20:37:10;19.23;;;13.05;;
16906;SDS011;8570;52.380;4.654;2023-06-24T20:42:13;17.65;;;12.63;;
16906;SDS011;8570;52.380;4.654;2023-06-24T20:47:17;18.55;;;14.68;;
16906;SDS011;8570;52.380;4.654;2023-06-24T20:52:19;18.52;;;14.88;;
16906;SDS011;8570;52.380;4.654;2023-06-24T20:57:23;16.60;;;14.18;;
16906;SDS011;8570;52.380;4.654;2023-06-24T21:02:25;18.75;;;15.68;;
16906;SDS011;8570;52.380;4.654;2023-06-24T21:07:27;18.05;;;15.90;;
16906;SDS011;8570;52.380;4.654;2023-06-24T21:12:30;17.60;;;14.85;;
16906;SDS011;8570;52.380;4.654;2023-06-24T21:17:34;16.67;;;14.73;;
16906;SDS011;8570;52.380;4.654;2023-06-24T21:22:37;18.17;;;15.10;;
16906;SDS011;8570;52.380;4.654;2023-06-24T21:27:50;18.73;;;14.40;;
16906;SDS011;8570;52.380;4.654;2023-06-24T21:32:52;18.63;;;13.88;;
16906;SDS011;8570;52.380;4.654;2023-06-24T21:38:00;15.20;;;12.43;;
16906;SDS011;8570;52.380;4.654;2023-06-24T21:43:06;16.42;;;12.45;;
16906;SDS011;8570;52.380;4.654;2023-06-24T21:48:13;16.25;;;12.13;;
16906;SDS011;8570;52.380;4.654;2023-06-24T21:53:18;17.33;;;12.60;;
16906;SDS011;8570;52.380;4.654;2023-06-24T21:58:27;14.57;;;11.68;;
16906;SDS011;8570;52.380;4.654;2023-06-24T22:03:32;21.52;;;13.50;;
16906;SDS011;8570;52.380;4.654;2023-06-24T22:08:36;17.85;;;13.25;;
16906;SDS011;8570;52.380;4.654;2023-06-24T22:13:42;16.25;;;12.48;;
16906;SDS011;8570;52.380;4.654;2023-06-24T22:18:47;17.30;;;13.48;;
16906;SDS011;8570;52.380;4.654;2023-06-24T22:23:53;18.85;;;13.70;;
16906;SDS011;8570;52.380;4.654;2023-06-24T22:28:59;17.55;;;14.52;;
16906;SDS011;8570;52.380;4.654;2023-06-24T22:34:00;20.67;;;14.93;;
16906;SDS011;8570;52.380;4.654;2023-06-24T22:39:03;19.67;;;14.80;;
16906;SDS011;8570;52.380;4.654;2023-06-24T22:44:06;18.48;;;13.80;;
16906;SDS011;8570;52.380;4.654;2023-06-24T22:49:08;20.65;;;15.98;;
16906;SDS011;8570;52.380;4.654;2023-06-24T22:54:10;21.98;;;16.30;;
16906;SDS011;8570;52.380;4.654;2023-06-24T22:59:14;23.95;;;16.73;;
16906;SDS011;8570;52.380;4.654;2023-06-24T23:04:16;21.67;;;16.77;;
16906;SDS011;8570;52.380;4.654;2023-06-24T23:09:18;20.10;;;16.90;;
16906;SDS011;8570;52.380;4.654;2023-06-24T23:14:22;18.60;;;16.00;;
16906;SDS011;8570;52.380;4.654;2023-06-24T23:19:26;16.90;;;14.05;;
16906;SDS011;8570;52.380;4.654;2023-06-24T23:24:29;19.25;;;14.00;;
16906;SDS011;8570;52.380;4.654;2023-06-24T23:29:33;16.83;;;14.98;;
16906;SDS011;8570;52.380;4.654;2023-06-24T23:34:36;19.70;;;14.82;;
16906;SDS011;8570;52.380;4.654;2023-06-24T23:39:39;20.08;;;15.98;;
16906;SDS011;8570;52.380;4.654;2023-06-24T23:44:43;16.00;;;12.95;;
16906;SDS011;8570;52.380;4.654;2023-06-24T23:49:45;17.48;;;13.23;;
16906;SDS011;8570;52.380;4.654;2023-06-24T23:54:47;15.27;;;12.80;;
16906;SDS011;8570;52.380;4.654;2023-06-24T23:59:50;14.85;;;12.18;;
